Time;durP1;ratioP1;P1;durP2;ratioP2;P2;SDS_P1;SDS_P2;PMS_P1;PMS_P2;Temp;Humidity;BMP_temperature;BMP_pressure;BME280_temperature;BME280_humidity;BME280_pressure;Samples;Min_cycle;Max_cycle;Signal;HPM_P1;HPM_P2
2022/10/27 00:00:32;;;;;;;12.98;7.22;;;;;;;16.80;53.65;102385.56;1536711;91;21142;-50
2022/10/27 00:02:59;;;;;;;7.90;6.87;;;;;;;16.75;53.86;102383.94;1540885;91;21112;-50
2022/10/27 00:05:25;;;;;;;8.98;7.50;;;;;;;16.71;53.94;102384.91;1540377;91;21157;-50
2022/10/27 00:07:52;;;;;;;7.80;6.92;;;;;;;16.66;53.98;102393.32;1538017;91;21097;-50
2022/10/27 00:10:19;;;;;;;7.95;7.12;;;;;;;16.60;54.08;102396.08;1538267;91;21085;-50
2022/10/27 00:12:47;;;;;;;7.28;6.58;;;;;;;16.56;54.29;102390.47;1537007;91;21070;-52
2022/10/27 00:15:14;;;;;;;7.92;7.05;;;;;;;16.54;54.50;102402.77;1635965;84;21031;-50
2022/10/27 00:17:42;;;;;;;8.13;7.33;;;;;;;16.43;54.93;102406.02;1700796;83;21043;-50
2022/10/27 00:20:10;;;;;;;8.83;7.92;;;;;;;16.44;54.95;102410.39;1722883;82;21031;-50
2022/10/27 00:22:36;;;;;;;8.80;7.20;;;;;;;16.36;55.31;102406.61;1718041;82;21042;-51
2022/10/27 00:25:04;;;;;;;9.03;7.50;;;;;;;16.46;55.19;102412.55;1709316;82;21061;-50
2022/10/27 00:27:31;;;;;;;9.78;8.68;;;;;;;16.45;55.37;102408.17;1715416;82;21073;-50
2022/10/27 00:29:58;;;;;;;8.75;7.75;;;;;;;16.49;55.33;102413.78;1731131;82;21015;-51
2022/10/27 00:32:24;;;;;;;8.95;8.05;;;;;;;16.49;55.21;102416.00;1760558;80;20986;-50
2022/10/27 00:34:51;;;;;;;8.80;7.00;;;;;;;16.49;55.17;102410.74;1750052;81;21106;-52
2022/10/27 00:37:18;;;;;;;9.43;8.38;;;;;;;16.49;55.21;102407.20;1736316;82;21545;-50
2022/10/27 00:39:44;;;;;;;12.90;11.70;;;;;;;16.49;55.13;102405.89;1725771;82;21050;-49
2022/10/27 00:42:14;;;;;;;10.75;8.48;;;;;;;16.44;55.42;102403.39;1736386;82;21308;-50
2022/10/27 00:44:46;;;;;;;8.73;7.87;;;;;;;16.44;55.58;102402.52;1772518;80;21678;-51
2022/10/27 00:47:31;;;;;;;8.85;7.70;;;;;;;16.43;55.80;102404.70;1696217;83;21045;-51
2022/10/27 00:50:13;;;;;;;8.33;7.53;;;;;;;16.43;55.94;102402.08;1626153;86;21042;-51
2022/10/27 00:52:50;;;;;;;10.38;7.85;;;;;;;16.41;56.11;102403.88;1626947;86;21070;-51
2022/10/27 00:55:27;;;;;;;9.28;8.23;;;;;;;16.39;56.29;102404.34;1642526;87;21022;-52
2022/10/27 00:57:56;;;;;;;9.58;8.68;;;;;;;16.35;56.55;102403.99;1635385;86;21129;-51
2022/10/27 01:00:23;;;;;;;9.93;8.05;;;;;;;16.29;56.89;102408.48;1634350;86;21098;-51
2022/10/27 01:02:49;;;;;;;9.03;7.83;;;;;;;16.28;57.15;102409.37;1621348;86;21065;-51
2022/10/27 01:05:25;;;;;;;10.68;7.95;;;;;;;16.30;57.42;102408.89;1632587;86;21024;-51
2022/10/27 01:07:55;;;;;;;11.28;7.78;;;;;;;16.34;57.49;102412.78;1628430;87;21037;-52
2022/10/27 01:10:23;;;;;;;10.70;8.40;;;;;;;16.36;57.61;102414.94;1631456;86;21084;-51
2022/10/27 01:12:50;;;;;;;9.10;8.20;;;;;;;16.35;57.79;102418.44;1602149;87;21649;-51
2022/10/27 01:15:18;;;;;;;11.55;8.75;;;;;;;16.31;57.96;102421.59;1628487;86;21215;-51
2022/10/27 01:18:18;;;;;;;10.20;8.80;;;;;;;16.29;58.22;102421.62;1622510;86;21062;-51
2022/10/27 01:21:44;;;;;;;9.98;8.18;;;;;;;16.32;58.23;102422.02;1557147;90;22271;-50
2022/10/27 01:24:42;;;;;;;13.53;9.53;;;;;;;16.37;58.16;102428.47;1573481;90;21127;-50
2022/10/27 01:27:20;;;;;;;9.33;8.43;;;;;;;16.42;57.80;102431.89;1576927;90;21074;-50
2022/10/27 01:30:11;;;;;;;9.78;8.70;;;;;;;16.42;57.63;102430.14;1567313;90;21642;-50
2022/10/27 01:32:54;;;;;;;11.95;8.90;;;;;;;16.42;57.65;102429.27;1543494;92;21136;-50
2022/10/27 01:35:29;;;;;;;9.65;8.68;;;;;;;16.40;57.64;102433.69;1546544;92;21084;-50
2022/10/27 01:38:27;;;;;;;9.65;8.65;;;;;;;16.38;57.84;102430.22;1532823;92;21083;-51
2022/10/27 01:41:16;;;;;;;9.43;8.60;;;;;;;16.35;57.99;102434.20;1520334;92;21142;-51
2022/10/27 01:43:43;;;;;;;10.43;8.48;;;;;;;16.32;58.21;102431.66;1533641;91;21656;-52
2022/10/27 01:46:09;;;;;;;9.40;8.50;;;;;;;16.28;58.42;102433.01;1533215;92;21054;-52
2022/10/27 01:48:37;;;;;;;9.95;8.95;;;;;;;16.26;58.61;102434.80;1505184;92;21156;-52
2022/10/27 01:51:05;;;;;;;10.45;9.35;;;;;;;16.25;58.78;102431.77;1546992;91;21092;-52
2022/10/27 01:53:37;;;;;;;10.40;9.33;;;;;;;16.26;58.96;102436.55;1550188;91;21096;-52
2022/10/27 01:56:09;;;;;;;9.83;8.88;;;;;;;16.25;59.09;102435.70;1534986;91;21572;-52
2022/10/27 01:58:53;;;;;;;11.05;9.10;;;;;;;16.25;59.21;102437.46;1549662;91;21206;-52
2022/10/27 02:01:40;;;;;;;10.25;9.25;;;;;;;16.22;59.22;102438.81;1478262;97;21139;-50
2022/10/27 02:04:41;;;;;;;10.80;9.70;;;;;;;16.18;59.26;102436.70;1456644;97;21114;-49
2022/10/27 02:07:36;;;;;;;10.30;9.30;;;;;;;16.18;59.27;102449.83;1466500;96;21160;-50
2022/10/27 02:10:18;;;;;;;10.23;9.33;;;;;;;16.21;59.18;102455.05;1473525;96;21156;-50
2022/10/27 02:12:45;;;;;;;10.53;9.23;;;;;;;16.28;58.99;102459.27;1431699;99;21105;-52
2022/10/27 02:15:24;;;;;;;10.60;9.60;;;;;;;16.34;58.85;102457.45;1447870;96;21557;-50
2022/10/27 02:17:52;;;;;;;10.63;9.33;;;;;;;16.40;58.61;102463.89;1487317;94;21120;-49
2022/10/27 02:20:23;;;;;;;10.63;9.53;;;;;;;16.45;58.49;102460.72;1524944;93;21541;-50
2022/10/27 02:22:51;;;;;;;11.43;10.43;;;;;;;16.50;58.29;102462.42;1524200;93;21505;-50
2022/10/27 02:25:21;;;;;;;10.15;9.25;;;;;;;16.53;58.07;102466.72;1518307;93;21165;-50
2022/10/27 02:27:47;;;;;;;10.78;9.23;;;;;;;16.55;57.84;102468.91;1528946;90;21077;-49
2022/10/27 02:30:14;;;;;;;15.25;10.10;;;;;;;16.57;57.64;102471.05;1591071;89;21673;-50
2022/10/27 02:32:42;;;;;;;10.85;9.45;;;;;;;16.57;57.51;102477.63;1590296;89;21059;-49
2022/10/27 02:35:10;;;;;;;10.38;9.28;;;;;;;16.57;57.37;102484.20;1554427;89;21556;-50
2022/10/27 02:37:39;;;;;;;11.53;9.68;;;;;;;16.59;57.21;102485.03;1610053;84;21111;-49
2022/10/27 02:40:08;;;;;;;10.53;9.50;;;;;;;16.59;57.09;102485.88;1649366;85;21110;-50
2022/10/27 02:42:35;;;;;;;9.88;8.88;;;;;;;16.59;57.02;102490.29;1654028;84;21066;-50
2022/10/27 02:45:01;;;;;;;10.80;9.70;;;;;;;16.57;56.91;102488.14;1653673;84;21056;-50
2022/10/27 02:47:28;;;;;;;10.32;9.25;;;;;;;16.58;56.85;102493.80;1653984;85;21058;-50
2022/10/27 02:49:56;;;;;;;9.68;8.78;;;;;;;16.57;56.86;102498.18;1655897;85;21513;-52
2022/10/27 02:52:22;;;;;;;11.93;10.38;;;;;;;16.56;56.81;102496.91;1652583;84;21173;-50
2022/10/27 02:54:49;;;;;;;10.53;9.53;;;;;;;16.55;56.81;102496.50;1647816;85;21113;-50
2022/10/27 02:57:17;;;;;;;10.60;9.18;;;;;;;16.54;56.73;102497.38;1643064;85;21105;-50
2022/10/27 02:59:44;;;;;;;11.18;9.98;;;;;;;16.53;56.64;102495.63;1656521;84;21049;-52
2022/10/27 03:02:11;;;;;;;10.50;9.43;;;;;;;16.51;56.57;102495.67;1645487;84;21061;-51
2022/10/27 03:04:37;;;;;;;12.37;9.73;;;;;;;16.48;56.69;102496.15;1662047;85;21537;-49
2022/10/27 03:07:04;;;;;;;10.20;9.23;;;;;;;16.45;56.80;102502.76;1633246;86;21049;-50
2022/10/27 03:09:31;;;;;;;17.98;9.20;;;;;;;16.43;57.01;102502.80;1708878;80;21042;-50
2022/10/27 03:11:57;;;;;;;11.73;10.53;;;;;;;16.41;57.02;102501.08;1756771;80;21177;-50
2022/10/27 03:14:24;;;;;;;12.68;9.20;;;;;;;16.34;57.17;102494.22;1745014;80;21002;-50
2022/10/27 03:16:51;;;;;;;11.03;9.83;;;;;;;16.30;57.25;102493.39;1756520;80;21712;-50
2022/10/27 03:19:18;;;;;;;10.78;9.68;;;;;;;16.28;57.38;102507.87;1741664;80;21070;-52
2022/10/27 03:21:44;;;;;;;11.63;9.55;;;;;;;16.26;57.39;102496.97;1751031;80;21035;-52
2022/10/27 03:24:11;;;;;;;10.58;9.58;;;;;;;16.22;57.53;102506.67;1759780;80;21561;-51
2022/10/27 03:26:39;;;;;;;11.73;9.73;;;;;;;16.21;57.49;102510.20;1769593;80;21074;-51
2022/10/27 03:29:07;;;;;;;12.98;9.70;;;;;;;16.18;57.54;102506.30;1762147;80;20991;-52
2022/10/27 03:31:33;;;;;;;10.85;9.73;;;;;;;16.14;57.63;102508.56;1772467;80;21027;-51
2022/10/27 03:34:00;;;;;;;10.55;9.10;;;;;;;16.12;57.69;102510.34;1754233;81;21011;-51
2022/10/27 03:36:27;;;;;;;11.65;9.63;;;;;;;16.09;57.75;102507.76;1740558;80;21030;-51
2022/10/27 03:38:54;;;;;;;11.97;8.68;;;;;;;16.04;57.77;102514.86;1763556;80;20994;-52
2022/10/27 03:41:21;;;;;;;11.03;9.58;;;;;;;15.96;58.00;102516.75;1757927;80;21037;-51
2022/10/27 03:43:48;;;;;;;11.10;9.33;;;;;;;15.95;58.07;102512.38;1771413;80;21015;-52
2022/10/27 03:46:15;;;;;;;10.10;9.00;;;;;;;15.89;58.29;102519.04;1766577;80;21021;-51
2022/10/27 03:48:43;;;;;;;10.88;9.43;;;;;;;15.87;58.51;102518.63;1751460;80;21073;-51
2022/10/27 03:51:09;;;;;;;10.60;9.50;;;;;;;15.86;58.65;102517.80;1759396;80;21104;-51
2022/10/27 03:53:36;;;;;;;10.82;9.70;;;;;;;15.86;58.72;102526.98;1772363;80;21061;-52
2022/10/27 03:56:04;;;;;;;10.13;9.10;;;;;;;15.84;58.75;102528.77;1757701;81;21090;-52
2022/10/27 03:58:31;;;;;;;12.60;9.50;;;;;;;15.85;58.76;102528.29;1755554;80;21502;-51
2022/10/27 04:01:04;;;;;;;9.98;8.98;;;;;;;15.84;58.73;102532.70;1745555;80;21081;-51
2022/10/27 04:03:31;;;;;;;11.60;10.28;;;;;;;15.84;58.65;102534.02;1775805;80;21530;-51
2022/10/27 04:05:58;;;;;;;11.43;9.50;;;;;;;15.84;58.65;102536.64;1755700;80;21030;-51
2022/10/27 04:08:25;;;;;;;10.75;9.65;;;;;;;15.80;58.72;102537.58;1745073;81;21534;-51
2022/10/27 04:10:53;;;;;;;10.20;9.20;;;;;;;15.76;58.85;102537.63;1754942;80;21047;-51
2022/10/27 04:13:20;;;;;;;10.50;9.48;;;;;;;15.75;58.93;102538.08;1754936;80;22025;-51
2022/10/27 04:15:48;;;;;;;9.63;8.68;;;;;;;15.75;58.96;102538.08;1753099;80;21038;-51
2022/10/27 04:18:16;;;;;;;10.55;9.50;;;;;;;15.66;59.18;102540.82;1757241;80;21055;-51
2022/10/27 04:20:43;;;;;;;9.93;8.93;;;;;;;15.69;59.19;102546.04;1763340;80;21065;-51
2022/10/27 04:23:09;;;;;;;10.18;9.13;;;;;;;15.69;59.19;102542.53;1759861;80;21491;-51
2022/10/27 04:25:36;;;;;;;11.12;9.93;;;;;;;15.69;59.28;102544.73;1776708;80;21034;-52
2022/10/27 04:28:04;;;;;;;10.63;9.60;;;;;;;15.70;59.24;102545.16;1760343;80;21018;-51
2022/10/27 04:30:31;;;;;;;10.38;8.98;;;;;;;15.72;59.19;102551.26;1751641;80;20990;-51
2022/10/27 04:32:58;;;;;;;9.63;8.73;;;;;;;15.71;59.22;102549.51;1740175;81;21079;-52
2022/10/27 04:35:25;;;;;;;11.15;9.93;;;;;;;15.72;59.18;102553.88;1751677;80;21026;-51
2022/10/27 04:37:55;;;;;;;10.72;9.65;;;;;;;15.72;59.08;102557.82;1757491;80;21043;-51
2022/10/27 04:40:22;;;;;;;11.05;9.15;;;;;;;15.70;59.11;102557.41;1766681;80;21042;-51
2022/10/27 04:42:48;;;;;;;12.05;9.73;;;;;;;15.69;59.10;102554.34;1754756;80;21050;-51
2022/10/27 04:45:15;;;;;;;10.05;8.98;;;;;;;15.62;59.21;102564.06;1771414;80;21026;-51
2022/10/27 04:47:43;;;;;;;11.22;9.25;;;;;;;15.58;59.32;102566.77;1756360;80;20995;-51
2022/10/27 04:50:13;;;;;;;10.45;9.40;;;;;;;15.47;59.67;102570.84;1757677;80;21034;-51
2022/10/27 04:52:40;;;;;;;11.08;9.60;;;;;;;15.53;59.53;102567.27;1761084;81;21034;-51
2022/10/27 04:55:08;;;;;;;13.65;9.58;;;;;;;15.52;59.58;102576.88;1754015;80;21041;-51
2022/10/27 04:57:35;;;;;;;9.93;8.83;;;;;;;15.53;59.61;102579.07;1758080;80;21050;-51
2022/10/27 05:00:03;;;;;;;10.85;9.70;;;;;;;15.54;59.53;102577.73;1753896;80;21019;-51
2022/10/27 05:02:30;;;;;;;10.65;9.65;;;;;;;15.56;59.42;102577.27;1749249;80;21612;-51
2022/10/27 05:04:56;;;;;;;11.43;9.68;;;;;;;15.57;59.30;102581.64;1755675;80;21031;-51
2022/10/27 05:07:24;;;;;;;9.65;8.75;;;;;;;15.60;59.22;102582.05;1751509;80;21070;-51
2022/10/27 05:09:51;;;;;;;10.43;9.33;;;;;;;15.62;59.05;102591.61;1756015;81;21436;-51
2022/10/27 05:12:18;;;;;;;10.72;9.60;;;;;;;15.62;59.04;102591.61;1753269;80;20999;-51
2022/10/27 05:14:45;;;;;;;9.78;8.78;;;;;;;15.64;58.98;102592.45;1757527;80;21018;-51
2022/10/27 05:17:12;;;;;;;10.53;9.40;;;;;;;15.66;58.97;102589.37;1758064;80;21528;-53
2022/10/27 05:19:39;;;;;;;12.10;9.55;;;;;;;15.65;58.90;102595.52;1761508;80;21531;-52
2022/10/27 05:22:06;;;;;;;11.68;10.00;;;;;;;15.69;58.83;102601.59;1759810;80;21052;-51
2022/10/27 05:24:33;;;;;;;11.10;10.05;;;;;;;15.69;58.75;102607.72;1754634;80;21027;-51
2022/10/27 05:27:00;;;;;;;10.88;9.68;;;;;;;15.72;58.75;102614.25;1759317;80;21073;-51
2022/10/27 05:29:27;;;;;;;10.82;9.73;;;;;;;15.75;58.71;102611.56;1748330;80;21561;-51
2022/10/27 05:31:54;;;;;;;10.60;9.50;;;;;;;15.79;58.72;102618.51;1770457;80;21046;-51
2022/10/27 05:34:21;;;;;;;10.63;9.53;;;;;;;15.81;58.66;102619.79;1761613;80;21002;-51
2022/10/27 05:36:47;;;;;;;10.63;9.53;;;;;;;15.81;58.67;102621.98;1747141;81;21078;-51
2022/10/27 05:39:14;;;;;;;11.03;9.88;;;;;;;15.82;58.74;102621.55;1760501;80;21054;-51
2022/10/27 05:41:41;;;;;;;10.50;9.40;;;;;;;15.87;58.74;102621.89;1769644;80;21046;-51
2022/10/27 05:44:09;;;;;;;10.53;9.50;;;;;;;15.91;58.65;102622.27;1773904;80;21028;-51
2022/10/27 05:46:36;;;;;;;16.05;10.43;;;;;;;15.96;58.59;102629.65;1765774;80;21373;-52
2022/10/27 05:49:03;;;;;;;9.90;8.90;;;;;;;16.00;58.55;102630.03;1756054;80;21019;-51
2022/10/27 05:51:29;;;;;;;10.45;8.78;;;;;;;16.04;58.46;102636.09;1758043;80;21096;-51
2022/10/27 05:53:56;;;;;;;11.68;9.23;;;;;;;16.10;58.41;102635.56;1754956;81;21066;-52
2022/10/27 05:56:23;;;;;;;10.85;9.35;;;;;;;16.15;58.21;102639.00;1754970;80;21074;-51
2022/10/27 05:58:50;;;;;;;12.30;9.25;;;;;;;16.17;58.28;102645.10;1769784;80;22284;-51
2022/10/27 06:01:16;;;;;;;10.90;9.63;;;;;;;16.18;58.34;102650.76;1758646;80;21581;-51
2022/10/27 06:03:43;;;;;;;11.70;9.50;;;;;;;16.22;58.35;102645.88;1752245;80;21002;-51
2022/10/27 06:06:10;;;;;;;12.18;8.85;;;;;;;16.28;58.39;102648.41;1756700;81;21494;-51
2022/10/27 06:08:37;;;;;;;11.57;9.45;;;;;;;16.34;58.30;102657.11;1764164;80;20987;-51
2022/10/27 06:11:04;;;;;;;10.80;9.75;;;;;;;16.38;58.36;102656.16;1775311;80;21053;-52
2022/10/27 06:13:32;;;;;;;10.38;9.28;;;;;;;16.42;58.47;102659.16;1757542;80;21262;-51
2022/10/27 06:15:59;;;;;;;9.55;8.60;;;;;;;16.46;58.51;102650.34;1757483;80;21058;-51
2022/10/27 06:18:26;;;;;;;11.48;9.50;;;;;;;16.48;58.53;102650.75;1757829;80;21525;-51
2022/10/27 06:20:52;;;;;;;10.85;9.70;;;;;;;16.49;58.63;102656.44;1755906;80;21467;-51
2022/10/27 06:23:20;;;;;;;11.00;9.45;;;;;;;16.50;58.72;102662.57;1768968;80;21063;-52
2022/10/27 06:25:47;;;;;;;9.53;8.63;;;;;;;16.51;58.81;102660.34;1770574;80;21034;-51
2022/10/27 06:28:14;;;;;;;14.05;9.18;;;;;;;16.52;58.96;102659.47;1767328;80;21069;-51
2022/10/27 06:30:40;;;;;;;11.20;9.05;;;;;;;16.57;58.92;102660.28;1754630;80;21066;-51
2022/10/27 06:33:07;;;;;;;9.38;8.40;;;;;;;16.61;58.97;102662.80;1753093;80;21560;-51
2022/10/27 06:35:34;;;;;;;10.05;8.95;;;;;;;16.68;59.05;102666.20;1757528;80;21081;-51
2022/10/27 06:38:01;;;;;;;9.45;8.55;;;;;;;16.75;59.01;102660.84;1755996;80;21690;-51
2022/10/27 06:40:29;;;;;;;11.28;8.75;;;;;;;16.82;58.84;102669.47;1755249;80;21513;-51
2022/10/27 06:42:56;;;;;;;11.05;9.93;;;;;;;16.88;58.75;102668.04;1762814;80;21090;-51
2022/10/27 06:45:22;;;;;;;10.43;9.43;;;;;;;16.91;58.68;102675.89;1760981;80;21034;-51
2022/10/27 06:47:58;;;;;;;11.00;9.93;;;;;;;16.92;58.68;102671.91;1756979;80;21002;-51
2022/10/27 06:50:24;;;;;;;11.28;9.93;;;;;;;16.96;58.78;102681.48;1699875;82;21523;-51
2022/10/27 06:52:51;;;;;;;11.05;9.95;;;;;;;17.03;58.74;102675.67;1731190;82;21038;-51
2022/10/27 06:55:19;;;;;;;12.70;9.85;;;;;;;17.07;58.57;102676.03;1697439;82;21035;-52
2022/10/27 06:57:46;;;;;;;10.45;9.35;;;;;;;17.09;58.48;102671.61;1700753;82;21151;-51
2022/10/27 07:00:14;;;;;;;12.70;9.48;;;;;;;17.12;58.51;102672.88;1719173;82;21067;-51
2022/10/27 07:02:40;;;;;;;10.23;8.83;;;;;;;17.13;58.46;102670.66;1710152;82;21028;-51
2022/10/27 07:05:08;;;;;;;11.90;9.93;;;;;;;17.16;58.33;102675.88;1718482;81;21056;-51
2022/10/27 07:07:35;;;;;;;13.70;9.53;;;;;;;17.17;58.25;102677.59;1721366;82;21099;-51
2022/10/27 07:10:05;;;;;;;11.20;8.48;;;;;;;17.18;58.19;102678.03;1717435;82;21549;-51
2022/10/27 07:12:33;;;;;;;9.98;8.98;;;;;;;17.19;58.06;102681.06;1722971;82;21047;-51
2022/10/27 07:15:01;;;;;;;9.23;8.33;;;;;;;17.21;58.25;102680.58;1714303;81;21114;-51
2022/10/27 07:17:28;;;;;;;10.23;9.10;;;;;;;17.23;58.16;102681.42;1723863;82;21042;-51
2022/10/27 07:19:56;;;;;;;9.78;8.88;;;;;;;17.25;58.00;102680.95;1717698;83;21257;-51
2022/10/27 07:22:22;;;;;;;10.13;8.28;;;;;;;17.28;57.99;102681.34;1710024;82;21060;-51
2022/10/27 07:24:50;;;;;;;11.15;8.98;;;;;;;17.28;58.02;102682.22;1724730;82;21051;-51
2022/10/27 07:27:16;;;;;;;9.70;8.40;;;;;;;17.31;58.00;102686.09;1725554;80;21573;-51
2022/10/27 07:29:44;;;;;;;10.30;8.68;;;;;;;17.34;58.04;102687.80;1753667;80;21036;-51
2022/10/27 07:32:11;;;;;;;9.90;8.90;;;;;;;17.15;58.44;102682.02;1754063;80;21081;-51
2022/10/27 07:34:39;;;;;;;9.93;9.00;;;;;;;17.12;58.60;102684.72;1745202;80;21058;-51
2022/10/27 07:37:06;;;;;;;10.10;8.88;;;;;;;17.14;58.56;102680.30;1756365;80;21929;-51
2022/10/27 07:39:33;;;;;;;10.75;9.20;;;;;;;17.16;58.70;102686.39;1765614;80;21006;-51
2022/10/27 07:41:59;;;;;;;9.05;8.18;;;;;;;17.16;58.76;102686.39;1745587;81;21478;-51
2022/10/27 07:44:26;;;;;;;9.63;8.70;;;;;;;17.45;57.93;102688.03;1753984;80;21069;-51
2022/10/27 07:46:52;;;;;;;11.73;8.75;;;;;;;17.51;57.83;102690.58;1771366;80;21031;-52
2022/10/27 07:49:21;;;;;;;11.40;9.33;;;;;;;17.58;57.54;102693.48;1756258;80;21043;-51
2022/10/27 07:51:47;;;;;;;10.60;9.10;;;;;;;17.61;57.30;102691.25;1755658;80;21046;-51
2022/10/27 07:54:14;;;;;;;10.43;9.10;;;;;;;17.64;57.28;102689.89;1755319;81;21450;-51
2022/10/27 07:56:40;;;;;;;9.78;8.78;;;;;;;17.69;57.35;102692.83;1778626;80;20999;-51
2022/10/27 07:59:07;;;;;;;11.97;9.63;;;;;;;17.74;57.41;102700.17;1773174;80;21002;-51
2022/10/27 08:01:33;;;;;;;10.82;9.48;;;;;;;17.79;57.38;102695.69;1759557;80;21510;-52
2022/10/27 08:04:00;;;;;;;9.85;8.85;;;;;;;17.83;57.34;102698.67;1770582;80;21026;-51
2022/10/27 08:06:26;;;;;;;11.28;9.25;;;;;;;17.88;57.20;102704.73;1753279;80;21030;-51
2022/10/27 08:08:53;;;;;;;9.45;7.92;;;;;;;17.91;56.90;102702.92;1757977;80;21044;-51
2022/10/27 08:11:22;;;;;;;10.05;9.03;;;;;;;17.92;56.85;102698.06;1756381;80;21534;-51
2022/10/27 08:13:52;;;;;;;11.80;9.00;;;;;;;17.93;56.73;102691.91;1747185;81;21050;-51
2022/10/27 08:16:19;;;;;;;10.43;9.35;;;;;;;17.94;56.65;102694.94;1749718;80;21021;-52
2022/10/27 08:18:47;;;;;;;10.65;9.05;;;;;;;17.88;56.75;102695.51;1771148;80;21092;-51
2022/10/27 08:21:13;;;;;;;10.48;9.03;;;;;;;17.88;57.11;102699.45;1764706;80;20990;-51
2022/10/27 08:23:41;;;;;;;9.28;8.33;;;;;;;17.97;56.89;102698.84;1774035;80;21529;-51
2022/10/27 08:26:07;;;;;;;10.20;9.13;;;;;;;18.07;56.63;102700.38;1761506;80;21035;-51
2022/10/27 08:28:34;;;;;;;9.68;8.73;;;;;;;18.11;56.68;102700.28;1764950;80;21006;-52
2022/10/27 08:31:00;;;;;;;10.50;9.05;;;;;;;18.18;56.65;102699.66;1756653;80;21086;-51
2022/10/27 08:33:27;;;;;;;11.38;8.85;;;;;;;18.23;56.43;102702.63;1757649;80;21070;-51
2022/10/27 08:35:54;;;;;;;9.75;8.85;;;;;;;18.28;56.50;102707.81;1756952;80;21093;-51
2022/10/27 08:38:20;;;;;;;10.98;8.33;;;;;;;18.35;56.48;102706.74;1767498;80;21493;-51
2022/10/27 08:41:25;;;;;;;9.05;8.15;;;;;;;18.43;56.27;102713.61;1759692;80;21007;-51
2022/10/27 08:44:13;;;;;;;9.53;8.53;;;;;;;18.47;56.01;102707.81;1761106;80;20999;-51
2022/10/27 08:47:04;;;;;;;10.50;8.03;;;;;;;18.59;55.89;102708.83;1763880;80;21006;-50
2022/10/27 08:49:36;;;;;;;10.27;9.23;;;;;;;18.69;55.73;102706.41;1758937;81;21046;-50
2022/10/27 08:52:34;;;;;;;9.90;8.73;;;;;;;18.74;55.82;102709.78;1768559;80;21310;-50
2022/10/27 08:55:21;;;;;;;12.05;8.55;;;;;;;18.84;55.67;102717.88;1750631;81;21537;-50
2022/10/27 08:58:08;;;;;;;9.88;8.88;;;;;;;18.95;55.31;102718.49;1755759;80;21021;-50
2022/10/27 09:00:50;;;;;;;9.63;8.68;;;;;;;19.03;54.99;102715.20;1760543;80;21058;-50
2022/10/27 09:03:41;;;;;;;9.58;8.60;;;;;;;19.04;54.70;102712.95;1765977;80;21027;-50
2022/10/27 09:06:35;;;;;;;8.78;7.87;;;;;;;19.05;54.55;102713.83;1731786;82;21050;-50
2022/10/27 09:09:33;;;;;;;9.95;8.33;;;;;;;19.02;54.69;102716.09;1693897;82;21104;-50
2022/10/27 09:12:20;;;;;;;9.08;8.20;;;;;;;19.05;54.39;102717.79;1706599;82;20998;-50
2022/10/27 09:15:13;;;;;;;9.38;8.33;;;;;;;19.05;54.66;102718.66;1720308;82;21058;-50
2022/10/27 09:17:48;;;;;;;8.58;7.70;;;;;;;19.11;54.54;102713.67;1706345;82;21030;-50
2022/10/27 09:20:48;;;;;;;10.08;8.90;;;;;;;19.12;54.50;102714.98;1699006;82;21130;-50
2022/10/27 09:23:16;;;;;;;9.20;8.30;;;;;;;19.10;54.54;102715.44;1696432;82;21573;-50
2022/10/27 09:25:44;;;;;;;10.00;8.28;;;;;;;19.14;54.54;102714.48;1723506;82;21129;-50
2022/10/27 09:28:21;;;;;;;8.13;7.33;;;;;;;19.21;54.40;102708.11;1714662;82;21030;-50
2022/10/27 09:30:49;;;;;;;9.48;7.17;;;;;;;19.26;54.08;102712.83;1709276;82;20995;-50
2022/10/27 09:33:20;;;;;;;8.10;6.87;;;;;;;19.31;53.92;102706.95;1725909;82;21030;-50
2022/10/27 09:35:49;;;;;;;7.37;6.65;;;;;;;19.36;53.72;102703.78;1717798;82;21502;-50
2022/10/27 09:38:20;;;;;;;7.65;6.67;;;;;;;19.40;53.47;102704.11;1708915;82;21055;-50
2022/10/27 09:40:47;;;;;;;8.38;7.50;;;;;;;19.42;53.41;102696.14;1725314;82;21067;-50
2022/10/27 09:43:13;;;;;;;12.93;7.83;;;;;;;19.45;53.29;102698.23;1758706;80;21487;-50
2022/10/27 09:45:42;;;;;;;7.83;7.03;;;;;;;19.51;53.11;102695.02;1754055;80;21043;-50
2022/10/27 09:48:14;;;;;;;7.78;7.08;;;;;;;19.54;52.88;102694.95;1751211;80;21018;-50
2022/10/27 09:51:15;;;;;;;9.60;6.05;;;;;;;19.57;52.70;102705.41;1741306;80;21035;-50
2022/10/27 09:53:47;;;;;;;6.65;6.05;;;;;;;19.61;52.46;102703.09;1781386;80;21073;-50
2022/10/27 09:56:30;;;;;;;7.42;5.40;;;;;;;19.60;52.10;102701.37;1764588;80;21026;-50
2022/10/27 09:59:01;;;;;;;5.33;4.83;;;;;;;19.62;51.39;102690.31;1757897;80;21000;-50
2022/10/27 10:01:58;;;;;;;7.12;5.45;;;;;;;19.65;51.02;102692.85;1768522;80;20982;-50
2022/10/27 10:04:38;;;;;;;6.37;5.30;;;;;;;19.69;50.85;102686.12;1773541;80;21506;-50
2022/10/27 10:07:05;;;;;;;6.72;5.28;;;;;;;19.75;51.01;102689.03;1721123;82;21054;-50
2022/10/27 10:09:38;;;;;;;5.85;5.25;;;;;;;19.81;50.70;102688.84;1729471;82;21186;-50
2022/10/27 10:12:21;;;;;;;5.30;4.80;;;;;;;19.81;50.61;102678.28;1716043;82;20991;-49
2022/10/27 10:14:48;;;;;;;5.53;4.83;;;;;;;19.88;49.78;102681.16;1721053;82;21103;-50
2022/10/27 10:17:22;;;;;;;4.50;3.80;;;;;;;19.92;49.89;102678.39;1722846;82;21007;-50
2022/10/27 10:19:50;;;;;;;4.25;3.85;;;;;;;19.85;49.85;102681.23;1723146;82;21130;-50
2022/10/27 10:22:27;;;;;;;4.40;4.00;;;;;;;19.96;49.48;102688.41;1721637;82;21023;-51
2022/10/27 10:24:55;;;;;;;7.30;4.37;;;;;;;20.00;49.12;102688.72;1650652;85;21078;-50
2022/10/27 10:27:32;;;;;;;6.15;4.05;;;;;;;20.03;48.71;102684.68;1658629;86;21095;-50
2022/10/27 10:30:03;;;;;;;6.03;4.55;;;;;;;20.07;48.61;102683.67;1640391;86;21078;-50
2022/10/27 10:32:34;;;;;;;5.15;3.80;;;;;;;20.11;48.78;102691.43;1640040;86;21104;-49
2022/10/27 10:35:02;;;;;;;4.55;4.03;;;;;;;20.14;48.73;102687.84;1646241;86;21091;-49
2022/10/27 10:40:25;;;;;;;4.20;3.80;;;;;;;20.20;48.79;102683.27;1551059;92;21664;-50
2022/10/27 10:43:09;;;;;;;5.05;3.92;;;;;;;20.25;48.66;102681.36;1551174;92;21131;-50
2022/10/27 10:45:35;;;;;;;4.87;4.00;;;;;;;20.32;48.63;102685.13;1546110;92;21554;-50
2022/10/27 10:48:13;;;;;;;4.08;3.33;;;;;;;20.37;48.61;102687.15;1531883;92;21087;-50
2022/10/27 10:50:46;;;;;;;4.97;3.65;;;;;;;20.40;48.33;102695.88;1550822;92;21085;-50
2022/10/27 10:53:27;;;;;;;4.08;3.67;;;;;;;20.42;47.68;102696.69;1485306;96;21163;-50
2022/10/27 10:55:55;;;;;;;4.22;3.60;;;;;;;20.43;48.00;102693.11;1449336;96;21622;-50
2022/10/27 10:58:24;;;;;;;6.22;3.75;;;;;;;20.45;48.12;102693.05;1483668;96;21091;-50
2022/10/27 11:00:59;;;;;;;4.03;3.55;;;;;;;20.45;47.41;102690.41;1483879;96;21174;-50
2022/10/27 11:03:29;;;;;;;4.65;3.58;;;;;;;20.45;47.06;102691.73;1476494;96;21117;-50
2022/10/27 11:06:00;;;;;;;6.87;3.92;;;;;;;20.46;46.80;102693.03;1476437;96;21194;-50
2022/10/27 11:08:41;;;;;;;5.25;3.87;;;;;;;20.47;46.85;102686.81;1462781;98;21127;-50
2022/10/27 11:11:18;;;;;;;4.20;3.33;;;;;;;20.51;46.85;102684.92;1429875;99;21650;-50
2022/10/27 11:13:52;;;;;;;5.00;3.83;;;;;;;20.51;46.94;102680.51;1434299;99;21122;-50
2022/10/27 11:16:19;;;;;;;7.67;4.20;;;;;;;20.54;46.90;102683.06;1455138;98;21103;-50
2022/10/27 11:18:55;;;;;;;4.45;3.98;;;;;;;20.56;46.95;102681.23;1482450;96;21621;-50
2022/10/27 11:21:30;;;;;;;3.90;3.47;;;;;;;20.57;46.96;102684.27;1486071;96;21181;-50
2022/10/27 11:24:13;;;;;;;3.85;3.37;;;;;;;20.59;47.01;102678.92;1484969;96;21157;-50
2022/10/27 11:27:00;;;;;;;6.28;3.40;;;;;;;20.59;47.19;102677.15;1487315;93;21107;-50
2022/10/27 11:29:39;;;;;;;4.37;3.17;;;;;;;20.62;47.46;102686.32;1463704;96;21130;-50
2022/10/27 11:32:26;;;;;;;4.67;3.87;;;;;;;20.66;47.32;102677.37;1456099;96;21656;-50
2022/10/27 11:35:16;;;;;;;4.17;3.58;;;;;;;20.71;47.34;102680.70;1348543;104;21228;-50
2022/10/27 11:37:52;;;;;;;4.90;3.90;;;;;;;20.77;47.32;102684.95;1328042;106;21204;-50
2022/10/27 11:40:43;;;;;;;5.95;3.60;;;;;;;20.80;47.24;102676.44;1342089;105;21168;-50